sensor_id;sensor_type;location;lat;lon;timestamp;P1;durP1;ratioP1;P2;durP2;ratioP2
24751;SDS011;27246;52.376;4.628;2022-11-12T00:04:00;13.93;;;10.55;;
24751;SDS011;27246;52.376;4.628;2022-11-12T00:09:20;17.52;;;10.70;;
24751;SDS011;27246;52.376;4.628;2022-11-12T00:20:08;14.00;;;10.43;;
24751;SDS011;27246;52.376;4.628;2022-11-12T00:25:29;13.20;;;10.48;;
24751;SDS011;27246;52.376;4.628;2022-11-12T00:30:49;13.35;;;9.93;;
24751;SDS011;27246;52.376;4.628;2022-11-12T00:41:30;14.17;;;9.90;;
24751;SDS011;27246;52.376;4.628;2022-11-12T00:46:50;14.95;;;10.88;;
24751;SDS011;27246;52.376;4.628;2022-11-12T00:52:11;12.48;;;9.95;;
24751;SDS011;27246;52.376;4.628;2022-11-12T01:02:52;16.77;;;11.50;;
24751;SDS011;27246;52.376;4.628;2022-11-12T01:08:14;14.43;;;10.52;;
24751;SDS011;27246;52.376;4.628;2022-11-12T01:13:34;14.82;;;11.02;;
24751;SDS011;27246;52.376;4.628;2022-11-12T01:19:03;13.80;;;10.93;;
24751;SDS011;27246;52.376;4.628;2022-11-12T01:24:24;12.93;;;10.25;;
24751;SDS011;27246;52.376;4.628;2022-11-12T01:29:45;16.42;;;11.18;;
24751;SDS011;27246;52.376;4.628;2022-11-12T01:35:06;13.77;;;11.50;;
24751;SDS011;27246;52.376;4.628;2022-11-12T01:40:26;15.73;;;12.82;;
24751;SDS011;27246;52.376;4.628;2022-11-12T01:51:11;14.05;;;12.30;;
24751;SDS011;27246;52.376;4.628;2022-11-12T01:56:33;19.35;;;14.35;;
24751;SDS011;27246;52.376;4.628;2022-11-12T02:01:54;20.58;;;15.63;;
24751;SDS011;27246;52.376;4.628;2022-11-12T02:07:15;20.42;;;15.50;;
24751;SDS011;27246;52.376;4.628;2022-11-12T02:12:36;19.13;;;16.00;;
24751;SDS011;27246;52.376;4.628;2022-11-12T02:18:15;19.88;;;16.42;;
24751;SDS011;27246;52.376;4.628;2022-11-12T02:23:36;20.27;;;17.17;;
24751;SDS011;27246;52.376;4.628;2022-11-12T02:28:57;24.80;;;17.98;;
24751;SDS011;27246;52.376;4.628;2022-11-12T02:34:18;23.20;;;18.35;;
24751;SDS011;27246;52.376;4.628;2022-11-12T02:39:39;24.20;;;18.23;;
24751;SDS011;27246;52.376;4.628;2022-11-12T02:44:59;23.25;;;19.23;;
24751;SDS011;27246;52.376;4.628;2022-11-12T02:50:20;28.67;;;21.60;;
24751;SDS011;27246;52.376;4.628;2022-11-12T02:55:41;30.00;;;22.67;;
24751;SDS011;27246;52.376;4.628;2022-11-12T03:01:04;27.80;;;21.63;;
24751;SDS011;27246;52.376;4.628;2022-11-12T03:06:24;29.00;;;22.88;;
24751;SDS011;27246;52.376;4.628;2022-11-12T03:11:44;33.25;;;24.15;;
24751;SDS011;27246;52.376;4.628;2022-11-12T03:17:05;30.48;;;24.92;;
24751;SDS011;27246;52.376;4.628;2022-11-12T03:22:25;30.45;;;24.10;;
24751;SDS011;27246;52.376;4.628;2022-11-12T03:27:45;32.33;;;23.67;;
24751;SDS011;27246;52.376;4.628;2022-11-12T03:33:07;31.17;;;23.95;;
24751;SDS011;27246;52.376;4.628;2022-11-12T03:38:29;38.13;;;23.17;;
24751;SDS011;27246;52.376;4.628;2022-11-12T03:49:09;34.45;;;23.88;;
24751;SDS011;27246;52.376;4.628;2022-11-12T03:54:29;34.42;;;25.42;;
24751;SDS011;27246;52.376;4.628;2022-11-12T03:59:49;34.72;;;26.13;;
24751;SDS011;27246;52.376;4.628;2022-11-12T04:05:12;34.13;;;26.00;;
24751;SDS011;27246;52.376;4.628;2022-11-12T04:11:02;39.80;;;26.90;;
24751;SDS011;27246;52.376;4.628;2022-11-12T04:16:33;36.55;;;24.38;;
24751;SDS011;27246;52.376;4.628;2022-11-12T04:22:13;34.65;;;25.33;;
24751;SDS011;27246;52.376;4.628;2022-11-12T04:27:34;37.03;;;27.23;;
24751;SDS011;27246;52.376;4.628;2022-11-12T04:32:54;34.72;;;26.00;;
24751;SDS011;27246;52.376;4.628;2022-11-12T04:38:16;35.33;;;26.25;;
24751;SDS011;27246;52.376;4.628;2022-11-12T04:49:15;38.33;;;28.67;;
24751;SDS011;27246;52.376;4.628;2022-11-12T04:54:44;42.63;;;29.50;;
24751;SDS011;27246;52.376;4.628;2022-11-12T05:00:12;47.15;;;32.08;;
24751;SDS011;27246;52.376;4.628;2022-11-12T05:05:37;45.10;;;31.85;;
24751;SDS011;27246;52.376;4.628;2022-11-12T05:11:00;46.13;;;32.28;;
24751;SDS011;27246;52.376;4.628;2022-11-12T05:16:21;46.50;;;31.85;;
24751;SDS011;27246;52.376;4.628;2022-11-12T05:21:43;47.28;;;32.45;;
24751;SDS011;27246;52.376;4.628;2022-11-12T05:27:23;44.15;;;30.45;;
24751;SDS011;27246;52.376;4.628;2022-11-12T05:32:44;47.40;;;32.33;;
24751;SDS011;27246;52.376;4.628;2022-11-12T05:38:09;41.47;;;29.30;;
24751;SDS011;27246;52.376;4.628;2022-11-12T05:43:29;47.72;;;31.23;;
24751;SDS011;27246;52.376;4.628;2022-11-12T05:48:51;45.20;;;29.45;;
24751;SDS011;27246;52.376;4.628;2022-11-12T05:54:11;47.25;;;30.50;;
24751;SDS011;27246;52.376;4.628;2022-11-12T05:59:32;46.08;;;28.90;;
24751;SDS011;27246;52.376;4.628;2022-11-12T06:10:38;48.42;;;29.98;;
24751;SDS011;27246;52.376;4.628;2022-11-12T06:15:58;43.15;;;27.63;;
24751;SDS011;27246;52.376;4.628;2022-11-12T06:21:24;41.38;;;27.15;;
24751;SDS011;27246;52.376;4.628;2022-11-12T06:26:47;40.80;;;27.27;;
24751;SDS011;27246;52.376;4.628;2022-11-12T06:32:12;37.03;;;23.67;;
24751;SDS011;27246;52.376;4.628;2022-11-12T06:43:26;34.90;;;21.92;;
24751;SDS011;27246;52.376;4.628;2022-11-12T06:48:48;39.33;;;23.88;;
24751;SDS011;27246;52.376;4.628;2022-11-12T06:54:08;36.28;;;21.75;;
24751;SDS011;27246;52.376;4.628;2022-11-12T06:59:28;39.33;;;21.27;;
24751;SDS011;27246;52.376;4.628;2022-11-12T07:04:49;38.00;;;23.55;;
24751;SDS011;27246;52.376;4.628;2022-11-12T07:15:30;36.47;;;24.43;;
24751;SDS011;27246;52.376;4.628;2022-11-12T07:20:50;38.33;;;24.67;;
24751;SDS011;27246;52.376;4.628;2022-11-12T07:44:53;38.80;;;23.60;;
24751;SDS011;27246;52.376;4.628;2022-11-12T07:50:17;36.20;;;24.23;;
24751;SDS011;27246;52.376;4.628;2022-11-12T07:55:38;36.17;;;21.95;;
24751;SDS011;27246;52.376;4.628;2022-11-12T08:06:55;23.98;;;18.77;;
24751;SDS011;27246;52.376;4.628;2022-11-12T08:12:16;24.60;;;18.88;;
24751;SDS011;27246;52.376;4.628;2022-11-12T08:17:40;29.95;;;20.52;;
24751;SDS011;27246;52.376;4.628;2022-11-12T08:28:51;24.70;;;17.60;;
24751;SDS011;27246;52.376;4.628;2022-11-12T08:34:13;28.15;;;19.58;;
24751;SDS011;27246;52.376;4.628;2022-11-12T08:39:43;31.00;;;19.90;;
24751;SDS011;27246;52.376;4.628;2022-11-12T08:45:10;32.53;;;20.55;;
24751;SDS011;27246;52.376;4.628;2022-11-12T08:50:55;46.45;;;20.50;;
24751;SDS011;27246;52.376;4.628;2022-11-12T08:56:16;28.02;;;19.30;;
24751;SDS011;27246;52.376;4.628;2022-11-12T09:01:43;24.60;;;18.67;;
24751;SDS011;27246;52.376;4.628;2022-11-12T09:13:12;25.95;;;17.35;;
24751;SDS011;27246;52.376;4.628;2022-11-12T09:18:36;27.33;;;17.45;;
24751;SDS011;27246;52.376;4.628;2022-11-12T09:23:58;26.65;;;17.52;;
24751;SDS011;27246;52.376;4.628;2022-11-12T09:29:22;28.73;;;17.65;;
24751;SDS011;27246;52.376;4.628;2022-11-12T09:34:54;31.48;;;17.92;;
24751;SDS011;27246;52.376;4.628;2022-11-12T09:40:31;55.53;;;18.85;;
24751;SDS011;27246;52.376;4.628;2022-11-12T09:52:02;19.85;;;14.82;;
24751;SDS011;27246;52.376;4.628;2022-11-12T09:57:29;31.38;;;15.45;;
24751;SDS011;27246;52.376;4.628;2022-11-12T10:03:30;20.17;;;13.75;;
24751;SDS011;27246;52.376;4.628;2022-11-12T10:09:06;14.75;;;13.15;;
24751;SDS011;27246;52.376;4.628;2022-11-12T10:20:55;15.73;;;13.43;;
24751;SDS011;27246;52.376;4.628;2022-11-12T10:26:31;20.17;;;13.32;;
24751;SDS011;27246;52.376;4.628;2022-11-12T10:31:54;16.45;;;13.05;;
24751;SDS011;27246;52.376;4.628;2022-11-12T10:37:22;17.27;;;12.52;;
24751;SDS011;27246;52.376;4.628;2022-11-12T10:42:59;16.15;;;11.27;;
24751;SDS011;27246;52.376;4.628;2022-11-12T10:48:39;14.07;;;11.30;;
24751;SDS011;27246;52.376;4.628;2022-11-12T11:00:04;15.32;;;10.80;;
24751;SDS011;27246;52.376;4.628;2022-11-12T11:06:17;13.32;;;11.15;;
24751;SDS011;27246;52.376;4.628;2022-11-12T11:11:47;15.40;;;10.75;;
24751;SDS011;27246;52.376;4.628;2022-11-12T11:17:22;12.88;;;9.98;;
24751;SDS011;27246;52.376;4.628;2022-11-12T11:22:58;14.80;;;9.02;;
24751;SDS011;27246;52.376;4.628;2022-11-12T11:40:34;11.68;;;9.10;;
24751;SDS011;27246;52.376;4.628;2022-11-12T11:57:01;8.57;;;6.95;;
24751;SDS011;27246;52.376;4.628;2022-11-12T12:25:55;9.50;;;7.93;;
24751;SDS011;27246;52.376;4.628;2022-11-12T12:36:56;7.63;;;5.67;;
24751;SDS011;27246;52.376;4.628;2022-11-12T12:42:28;6.72;;;5.68;;
24751;SDS011;27246;52.376;4.628;2022-11-12T12:47:57;5.93;;;5.30;;
24751;SDS011;27246;52.376;4.628;2022-11-12T12:53:31;5.75;;;4.93;;
24751;SDS011;27246;52.376;4.628;2022-11-12T12:58:56;6.07;;;5.43;;
24751;SDS011;27246;52.376;4.628;2022-11-12T13:16:02;7.85;;;5.00;;
24751;SDS011;27246;52.376;4.628;2022-11-12T13:21:26;5.80;;;4.97;;
24751;SDS011;27246;52.376;4.628;2022-11-12T13:26:58;10.40;;;7.43;;
24751;SDS011;27246;52.376;4.628;2022-11-12T13:38:15;5.13;;;4.63;;
24751;SDS011;27246;52.376;4.628;2022-11-12T13:49:05;5.32;;;4.78;;
24751;SDS011;27246;52.376;4.628;2022-11-12T14:06:30;5.63;;;4.80;;
24751;SDS011;27246;52.376;4.628;2022-11-12T14:23:26;6.65;;;4.38;;
24751;SDS011;27246;52.376;4.628;2022-11-12T14:28:57;6.07;;;5.00;;
24751;SDS011;27246;52.376;4.628;2022-11-12T14:39:41;6.95;;;5.95;;
24751;SDS011;27246;52.376;4.628;2022-11-12T14:45:28;9.80;;;7.00;;
24751;SDS011;27246;52.376;4.628;2022-11-12T14:51:00;8.55;;;6.75;;
24751;SDS011;27246;52.376;4.628;2022-11-12T14:56:27;10.65;;;7.22;;
24751;SDS011;27246;52.376;4.628;2022-11-12T15:02:20;9.27;;;6.70;;
24751;SDS011;27246;52.376;4.628;2022-11-12T15:08:26;14.35;;;8.10;;
24751;SDS011;27246;52.376;4.628;2022-11-12T15:14:00;56.53;;;13.48;;
24751;SDS011;27246;52.376;4.628;2022-11-12T15:19:25;16.60;;;8.05;;
24751;SDS011;27246;52.376;4.628;2022-11-12T15:24:47;20.65;;;7.40;;
24751;SDS011;27246;52.376;4.628;2022-11-12T15:35:53;11.07;;;7.30;;
24751;SDS011;27246;52.376;4.628;2022-11-12T15:47:04;12.10;;;8.25;;
24751;SDS011;27246;52.376;4.628;2022-11-12T15:52:27;23.17;;;9.15;;
24751;SDS011;27246;52.376;4.628;2022-11-12T15:57:52;14.52;;;9.55;;
24751;SDS011;27246;52.376;4.628;2022-11-12T16:08:52;13.25;;;8.85;;
24751;SDS011;27246;52.376;4.628;2022-11-12T16:14:19;13.32;;;10.38;;
24751;SDS011;27246;52.376;4.628;2022-11-12T16:19:44;14.05;;;8.80;;
24751;SDS011;27246;52.376;4.628;2022-11-12T16:25:06;14.73;;;9.93;;
24751;SDS011;27246;52.376;4.628;2022-11-12T16:30:28;13.02;;;10.93;;
24751;SDS011;27246;52.376;4.628;2022-11-12T16:35:55;23.48;;;12.93;;
24751;SDS011;27246;52.376;4.628;2022-11-12T16:41:15;15.80;;;10.65;;
24751;SDS011;27246;52.376;4.628;2022-11-12T16:46:36;34.38;;;21.33;;
24751;SDS011;27246;52.376;4.628;2022-11-12T16:52:01;21.42;;;12.23;;
24751;SDS011;27246;52.376;4.628;2022-11-12T16:57:21;18.70;;;11.27;;
24751;SDS011;27246;52.376;4.628;2022-11-12T17:02:42;19.77;;;11.18;;
24751;SDS011;27246;52.376;4.628;2022-11-12T17:08:09;19.92;;;13.10;;
24751;SDS011;27246;52.376;4.628;2022-11-12T17:13:31;20.15;;;13.75;;
24751;SDS011;27246;52.376;4.628;2022-11-12T17:18:52;17.13;;;12.88;;
24751;SDS011;27246;52.376;4.628;2022-11-12T17:24:16;15.93;;;12.73;;
24751;SDS011;27246;52.376;4.628;2022-11-12T17:29:37;21.63;;;12.57;;
24751;SDS011;27246;52.376;4.628;2022-11-12T17:34:57;18.38;;;12.07;;
24751;SDS011;27246;52.376;4.628;2022-11-12T17:40:17;28.15;;;18.73;;
24751;SDS011;27246;52.376;4.628;2022-11-12T17:45:47;18.75;;;13.07;;
24751;SDS011;27246;52.376;4.628;2022-11-12T17:51:16;18.10;;;12.73;;
24751;SDS011;27246;52.376;4.628;2022-11-12T17:56:40;28.88;;;16.00;;
24751;SDS011;27246;52.376;4.628;2022-11-12T18:02:00;18.65;;;13.13;;
24751;SDS011;27246;52.376;4.628;2022-11-12T18:07:21;22.63;;;14.63;;
24751;SDS011;27246;52.376;4.628;2022-11-12T18:12:46;22.92;;;15.88;;
24751;SDS011;27246;52.376;4.628;2022-11-12T18:18:11;25.73;;;19.35;;
24751;SDS011;27246;52.376;4.628;2022-11-12T18:23:41;23.88;;;17.73;;
24751;SDS011;27246;52.376;4.628;2022-11-12T18:29:09;22.67;;;16.17;;
24751;SDS011;27246;52.376;4.628;2022-11-12T18:34:31;23.38;;;18.48;;
24751;SDS011;27246;52.376;4.628;2022-11-12T18:39:52;26.95;;;17.63;;
24751;SDS011;27246;52.376;4.628;2022-11-12T18:45:16;23.95;;;16.95;;
24751;SDS011;27246;52.376;4.628;2022-11-12T18:50:39;27.15;;;18.77;;
24751;SDS011;27246;52.376;4.628;2022-11-12T18:56:03;32.70;;;19.23;;
24751;SDS011;27246;52.376;4.628;2022-11-12T19:01:27;29.02;;;20.90;;
24751;SDS011;27246;52.376;4.628;2022-11-12T19:06:50;26.05;;;20.08;;
24751;SDS011;27246;52.376;4.628;2022-11-12T19:12:11;28.95;;;18.00;;
24751;SDS011;27246;52.376;4.628;2022-11-12T19:17:33;24.90;;;18.80;;
24751;SDS011;27246;52.376;4.628;2022-11-12T19:22:56;24.98;;;17.83;;
24751;SDS011;27246;52.376;4.628;2022-11-12T19:28:17;22.40;;;18.88;;
24751;SDS011;27246;52.376;4.628;2022-11-12T19:33:45;29.05;;;21.67;;
24751;SDS011;27246;52.376;4.628;2022-11-12T19:39:06;28.95;;;20.40;;
24751;SDS011;27246;52.376;4.628;2022-11-12T19:44:26;24.95;;;19.67;;
24751;SDS011;27246;52.376;4.628;2022-11-12T19:49:52;25.13;;;17.83;;
24751;SDS011;27246;52.376;4.628;2022-11-12T19:55:16;24.70;;;17.52;;
24751;SDS011;27246;52.376;4.628;2022-11-12T20:00:37;26.55;;;18.88;;
24751;SDS011;27246;52.376;4.628;2022-11-12T20:05:59;32.78;;;22.40;;
24751;SDS011;27246;52.376;4.628;2022-11-12T20:11:23;19.85;;;15.85;;
24751;SDS011;27246;52.376;4.628;2022-11-12T20:16:44;21.83;;;17.83;;
24751;SDS011;27246;52.376;4.628;2022-11-12T20:22:05;20.42;;;15.98;;
24751;SDS011;27246;52.376;4.628;2022-11-12T20:27:28;19.33;;;15.68;;
24751;SDS011;27246;52.376;4.628;2022-11-12T20:39:12;25.95;;;18.70;;
24751;SDS011;27246;52.376;4.628;2022-11-12T20:45:08;28.50;;;23.13;;
24751;SDS011;27246;52.376;4.628;2022-11-12T20:51:21;27.48;;;18.55;;
24751;SDS011;27246;52.376;4.628;2022-11-12T20:57:15;26.33;;;18.50;;
24751;SDS011;27246;52.376;4.628;2022-11-12T21:09:16;23.42;;;17.50;;
24751;SDS011;27246;52.376;4.628;2022-11-12T21:15:03;19.33;;;16.23;;
24751;SDS011;27246;52.376;4.628;2022-11-12T21:20:49;31.63;;;22.20;;
24751;SDS011;27246;52.376;4.628;2022-11-12T21:26:19;27.10;;;18.83;;
24751;SDS011;27246;52.376;4.628;2022-11-12T21:37:49;30.25;;;23.70;;
24751;SDS011;27246;52.376;4.628;2022-11-12T21:43:16;31.58;;;25.20;;
24751;SDS011;27246;52.376;4.628;2022-11-12T21:48:51;30.15;;;23.85;;
24751;SDS011;27246;52.376;4.628;2022-11-12T21:54:19;33.50;;;25.50;;
24751;SDS011;27246;52.376;4.628;2022-11-12T21:59:43;32.67;;;26.63;;
24751;SDS011;27246;52.376;4.628;2022-11-12T22:05:08;40.38;;;25.80;;
24751;SDS011;27246;52.376;4.628;2022-11-12T22:10:34;24.08;;;20.20;;
24751;SDS011;27246;52.376;4.628;2022-11-12T22:16:02;35.13;;;26.25;;
24751;SDS011;27246;52.376;4.628;2022-11-12T22:21:28;27.35;;;20.33;;
24751;SDS011;27246;52.376;4.628;2022-11-12T22:27:03;21.45;;;17.75;;
24751;SDS011;27246;52.376;4.628;2022-11-12T22:43:16;20.00;;;15.88;;
24751;SDS011;27246;52.376;4.628;2022-11-12T22:48:37;20.10;;;16.40;;
24751;SDS011;27246;52.376;4.628;2022-11-12T22:54:04;16.63;;;14.73;;
24751;SDS011;27246;52.376;4.628;2022-11-12T22:59:31;21.48;;;15.50;;
24751;SDS011;27246;52.376;4.628;2022-11-12T23:05:00;18.00;;;15.20;;
24751;SDS011;27246;52.376;4.628;2022-11-12T23:10:22;20.15;;;15.20;;
24751;SDS011;27246;52.376;4.628;2022-11-12T23:15:44;18.92;;;15.93;;
24751;SDS011;27246;52.376;4.628;2022-11-12T23:21:14;17.48;;;14.65;;
24751;SDS011;27246;52.376;4.628;2022-11-12T23:26:37;19.27;;;14.90;;
24751;SDS011;27246;52.376;4.628;2022-11-12T23:31:58;17.25;;;14.23;;
24751;SDS011;27246;52.376;4.628;2022-11-12T23:37:22;18.95;;;15.88;;
24751;SDS011;27246;52.376;4.628;2022-11-12T23:42:43;17.77;;;15.77;;
24751;SDS011;27246;52.376;4.628;2022-11-12T23:48:12;21.73;;;15.30;;
24751;SDS011;27246;52.376;4.628;2022-11-12T23:53:33;24.23;;;20.20;;
24751;SDS011;27246;52.376;4.628;2022-11-12T23:58:54;18.30;;;14.60;;
